Time;durP1;ratioP1;P1;durP2;ratioP2;P2;SDS_P1;SDS_P2;PMS_P1;PMS_P2;Temp;Humidity;BMP_temperature;BMP_pressure;BME280_temperature;BME280_humidity;BME280_pressure;Samples;Min_cycle;Max_cycle;Signal;HPM_P1;HPM_P2
2023/05/20 00:01:29;;;;;;;9.40;5.82;;;;;;;11.33;100.00;99179.44;4184363;28;20646;-72
2023/05/20 00:03:29;;;;;;;8.23;5.95;;;;;;;11.29;100.00;99168.31;4182630;28;20068;-72
2023/05/20 00:05:29;;;;;;;8.32;5.88;;;;;;;11.28;100.00;99172.25;4184589;28;20156;-72
2023/05/20 00:07:30;;;;;;;8.27;6.55;;;;;;;11.24;100.00;99166.63;4184819;28;20190;-72
2023/05/20 00:09:31;;;;;;;8.15;6.63;;;;;;;11.23;100.00;99164.22;4180682;28;20142;-72
2023/05/20 00:11:31;;;;;;;10.73;6.30;;;;;;;11.19;100.00;99164.16;4179396;28;20083;-72
2023/05/20 00:13:31;;;;;;;8.23;5.80;;;;;;;11.17;100.00;99163.72;4180929;28;20171;-72
2023/05/20 00:15:32;;;;;;;8.02;5.93;;;;;;;11.21;100.00;99166.56;4180946;28;20392;-72
2023/05/20 00:17:33;;;;;;;9.93;6.38;;;;;;;11.14;100.00;99172.75;4180205;28;20073;-72
2023/05/20 00:19:33;;;;;;;11.02;6.55;;;;;;;11.15;100.00;99176.31;4181360;28;20049;-72
2023/05/20 00:21:33;;;;;;;10.75;6.38;;;;;;;11.13;100.00;99167.59;4179602;28;20381;-72
2023/05/20 00:23:34;;;;;;;6.72;5.85;;;;;;;11.13;100.00;99173.91;4182523;28;20037;-72
2023/05/20 00:25:34;;;;;;;8.15;6.15;;;;;;;11.13;100.00;99164.81;4183576;28;20040;-72
2023/05/20 00:27:34;;;;;;;8.20;6.40;;;;;;;11.12;100.00;99169.56;4181677;28;20075;-72
2023/05/20 00:29:35;;;;;;;8.70;6.30;;;;;;;11.13;100.00;99164.81;4180964;28;20049;-72
2023/05/20 00:31:35;;;;;;;10.02;6.85;;;;;;;11.14;100.00;99169.19;4181716;28;20080;-72
2023/05/20 00:33:36;;;;;;;8.35;6.47;;;;;;;11.14;100.00;99169.19;4180963;28;20488;-72
2023/05/20 00:35:36;;;;;;;8.93;6.53;;;;;;;11.10;100.00;99162.78;4181488;28;20550;-72
2023/05/20 00:37:37;;;;;;;8.32;6.63;;;;;;;11.09;100.00;99167.53;4180011;28;20048;-72
2023/05/20 00:39:37;;;;;;;8.25;6.70;;;;;;;11.14;100.00;99152.56;4182907;28;20423;-72
2023/05/20 00:41:37;;;;;;;9.68;6.38;;;;;;;11.10;100.00;99163.59;4179677;28;20191;-72
2023/05/20 00:43:38;;;;;;;7.57;6.78;;;;;;;11.07;100.00;99158.75;4179127;28;20127;-72
2023/05/20 00:45:38;;;;;;;8.77;6.85;;;;;;;11.06;100.00;99170.19;4180281;28;20072;-72
2023/05/20 00:47:39;;;;;;;9.48;7.25;;;;;;;11.00;100.00;99157.81;4179633;28;20482;-72
2023/05/20 00:49:39;;;;;;;10.40;6.63;;;;;;;11.01;100.00;99160.22;4178504;28;20057;-72
2023/05/20 00:51:40;;;;;;;11.02;6.70;;;;;;;10.98;100.00;99164.50;4180846;28;20119;-72
2023/05/20 00:53:41;;;;;;;10.30;7.00;;;;;;;10.96;100.00;99152.22;4179542;28;20040;-72
2023/05/20 00:55:41;;;;;;;9.48;6.80;;;;;;;10.94;100.00;99152.56;4179142;28;20040;-72
2023/05/20 00:57:41;;;;;;;11.30;7.35;;;;;;;10.90;100.00;99148.91;4181330;28;20036;-72
2023/05/20 00:59:42;;;;;;;11.70;7.70;;;;;;;10.91;100.00;99147.75;4181744;28;20415;-72
2023/05/20 01:01:43;;;;;;;9.57;7.60;;;;;;;10.86;100.00;99147.25;4177993;28;20061;-72
2023/05/20 01:03:43;;;;;;;11.73;8.40;;;;;;;10.83;100.00;99142.44;4179255;28;20465;-72
2023/05/20 01:05:43;;;;;;;10.73;7.63;;;;;;;10.85;100.00;99148.44;4180667;28;20037;-72
2023/05/20 01:07:44;;;;;;;10.50;8.18;;;;;;;10.83;100.00;99154.31;4178888;28;20044;-72
2023/05/20 01:09:44;;;;;;;11.48;8.20;;;;;;;10.80;100.00;99148.69;4181081;28;20512;-72
2023/05/20 01:11:52;;;;;;;9.80;7.72;;;;;;;10.79;100.00;99145.13;4180205;28;20508;-72
2023/05/20 01:13:57;;;;;;;11.90;8.32;;;;;;;10.72;100.00;99144.97;4179161;28;20448;-72
2023/05/20 01:15:59;;;;;;;10.20;7.57;;;;;;;10.71;100.00;99140.63;4182675;28;20109;-72
2023/05/20 01:18:04;;;;;;;9.85;7.68;;;;;;;10.73;100.00;99140.25;4180040;28;20041;-72
2023/05/20 01:20:09;;;;;;;11.80;7.55;;;;;;;10.74;100.00;99142.63;4180995;28;20439;-72
2023/05/20 01:22:11;;;;;;;12.15;8.38;;;;;;;10.70;100.00;99141.78;4177750;28;20021;-72
2023/05/20 01:24:11;;;;;;;13.07;8.32;;;;;;;10.68;100.00;99133.84;4179914;28;20041;-72
2023/05/20 01:26:15;;;;;;;12.98;8.27;;;;;;;10.71;100.00;99135.06;4178469;28;20060;-72
2023/05/20 01:28:16;;;;;;;15.38;9.25;;;;;;;10.70;100.00;99139.00;4180996;28;20220;-72
2023/05/20 01:30:17;;;;;;;14.27;8.25;;;;;;;10.69;100.00;99140.97;4178086;28;20453;-72
2023/05/20 01:32:21;;;;;;;11.60;8.68;;;;;;;10.74;100.00;99134.34;4179339;28;20159;-72
2023/05/20 01:34:22;;;;;;;12.05;8.02;;;;;;;10.69;100.00;99140.19;4181161;28;20049;-72
2023/05/20 01:36:22;;;;;;;12.50;8.88;;;;;;;10.67;100.00;99135.00;4178597;28;20071;-72
2023/05/20 01:38:23;;;;;;;10.65;8.20;;;;;;;10.64;100.00;99144.03;4179955;28;20056;-72
2023/05/20 01:40:26;;;;;;;11.82;8.05;;;;;;;10.66;100.00;99143.66;4182440;28;20070;-72
2023/05/20 01:42:27;;;;;;;13.50;9.00;;;;;;;10.60;100.00;99132.09;4178134;28;20052;-72
2023/05/20 01:44:28;;;;;;;15.00;8.50;;;;;;;10.59;100.00;99138.78;4176953;28;20068;-72
2023/05/20 01:46:33;;;;;;;12.80;9.32;;;;;;;10.58;100.00;99136.34;4179958;28;20103;-72
2023/05/20 01:48:33;;;;;;;11.70;8.85;;;;;;;10.60;100.00;99142.34;4182220;28;20048;-72
2023/05/20 01:50:34;;;;;;;10.98;8.98;;;;;;;10.58;100.00;99139.94;4180773;28;20482;-72
2023/05/20 01:52:35;;;;;;;11.73;9.07;;;;;;;10.60;100.00;99140.38;4176487;28;20081;-72
2023/05/20 01:54:35;;;;;;;12.18;9.38;;;;;;;10.55;100.00;99137.09;4178417;28;20079;-72
2023/05/20 01:56:35;;;;;;;11.40;8.85;;;;;;;10.51;100.00;99125.97;4180782;28;20052;-72
2023/05/20 01:58:36;;;;;;;13.98;9.13;;;;;;;10.56;100.00;99133.16;4178685;28;20097;-72
2023/05/20 02:00:36;;;;;;;17.67;9.63;;;;;;;10.55;100.00;99135.13;4180465;28;20059;-72
2023/05/20 02:02:36;;;;;;;13.52;9.23;;;;;;;10.56;100.00;99136.72;4180555;28;20497;-72
2023/05/20 02:04:37;;;;;;;13.57;9.10;;;;;;;10.52;100.00;99122.03;4179787;28;20525;-72
2023/05/20 02:06:37;;;;;;;14.02;9.50;;;;;;;10.52;100.00;99122.03;4179889;28;20075;-72
2023/05/20 02:08:37;;;;;;;13.25;9.25;;;;;;;10.51;100.00;99128.72;4180900;28;20124;-72
2023/05/20 02:10:38;;;;;;;12.52;9.30;;;;;;;10.55;100.00;99126.81;4179754;28;20041;-72
2023/05/20 02:12:38;;;;;;;14.38;9.70;;;;;;;10.52;100.00;99127.56;4182795;28;20047;-72
2023/05/20 02:14:38;;;;;;;12.68;8.63;;;;;;;10.56;100.00;99139.50;4179524;28;20481;-72
2023/05/20 02:16:40;;;;;;;12.45;9.40;;;;;;;10.56;100.00;99130.41;4184450;28;20469;-72
2023/05/20 02:18:41;;;;;;;13.32;9.43;;;;;;;10.59;100.00;99137.97;4175929;28;20132;-72
2023/05/20 02:20:41;;;;;;;12.45;8.50;;;;;;;10.59;100.00;99136.03;4182586;28;20033;-72
2023/05/20 02:22:42;;;;;;;13.80;9.23;;;;;;;10.56;100.00;99135.94;4183304;28;20121;-72
2023/05/20 02:24:42;;;;;;;13.63;9.68;;;;;;;10.55;100.00;99137.09;4184489;28;20037;-72
2023/05/20 02:26:45;;;;;;;14.88;9.00;;;;;;;10.55;100.00;99140.66;4180233;28;20039;-72
2023/05/20 02:28:49;;;;;;;11.38;8.93;;;;;;;10.53;100.00;99137.47;4177676;28;20043;-72
2023/05/20 02:30:52;;;;;;;16.95;9.55;;;;;;;10.57;100.00;99140.28;4179483;28;20495;-72
2023/05/20 02:32:52;;;;;;;12.30;8.85;;;;;;;10.52;100.00;99133.09;4184620;28;20044;-72
2023/05/20 02:34:56;;;;;;;12.75;9.85;;;;;;;10.55;100.00;99137.09;4177950;28;20453;-72
2023/05/20 02:36:56;;;;;;;12.35;9.18;;;;;;;10.52;100.00;99132.28;4183534;28;20044;-72
2023/05/20 02:38:56;;;;;;;13.35;9.45;;;;;;;10.52;100.00;99135.88;4181519;28;20041;-72
2023/05/20 02:40:58;;;;;;;14.05;9.55;;;;;;;10.51;100.00;99130.66;4180885;28;20080;-72
2023/05/20 02:43:00;;;;;;;14.38;9.57;;;;;;;10.52;100.00;99137.81;4190575;28;20036;-72
2023/05/20 02:45:00;;;;;;;13.90;10.02;;;;;;;10.50;100.00;99129.88;4184027;28;20028;-72
2023/05/20 02:47:01;;;;;;;13.93;9.90;;;;;;;10.45;100.00;99127.41;4186910;28;20051;-72
2023/05/20 02:49:01;;;;;;;13.13;9.45;;;;;;;10.47;100.00;99127.84;4182214;28;20059;-72
2023/05/20 02:51:01;;;;;;;15.68;10.20;;;;;;;10.48;100.00;99132.19;4185099;28;20053;-72
2023/05/20 02:53:02;;;;;;;14.55;10.10;;;;;;;10.48;100.00;99121.13;4186894;28;20039;-72
2023/05/20 02:55:02;;;;;;;12.00;8.88;;;;;;;10.46;100.00;99123.47;4180662;28;20425;-72
2023/05/20 02:57:03;;;;;;;14.23;10.63;;;;;;;10.46;100.00;99111.59;4186119;28;20135;-72
2023/05/20 02:59:04;;;;;;;15.38;10.50;;;;;;;10.42;100.00;99122.56;4186244;28;20037;-72
2023/05/20 03:01:05;;;;;;;16.42;10.77;;;;;;;10.45;100.00;99129.38;4184798;28;20057;-72
2023/05/20 03:03:06;;;;;;;13.73;9.60;;;;;;;10.45;100.00;99129.38;4180317;28;20040;-72
2023/05/20 03:05:07;;;;;;;17.17;11.27;;;;;;;10.48;100.00;99128.63;4183924;28;20361;-72
2023/05/20 03:07:07;;;;;;;16.05;10.27;;;;;;;10.43;100.00;99117.88;4179308;28;20048;-72
2023/05/20 03:09:08;;;;;;;12.88;10.05;;;;;;;10.41;100.00;99119.00;4183119;28;20378;-72
2023/05/20 03:11:09;;;;;;;14.30;10.63;;;;;;;10.45;100.00;99113.56;4184915;28;20459;-72
2023/05/20 03:13:10;;;;;;;16.48;10.75;;;;;;;10.46;100.00;99115.16;4185744;28;20071;-72
2023/05/20 03:15:11;;;;;;;15.48;10.65;;;;;;;10.40;100.00;99105.53;4182523;28;20041;-72
2023/05/20 03:17:11;;;;;;;14.45;10.40;;;;;;;10.43;100.00;99112.34;4183625;28;20435;-72
2023/05/20 03:19:11;;;;;;;13.95;10.15;;;;;;;10.42;100.00;99108.75;4180766;28;20029;-72
2023/05/20 03:21:12;;;;;;;13.55;9.93;;;;;;;10.39;100.00;99115.00;4181676;28;20099;-72
2023/05/20 03:23:12;;;;;;;13.88;10.65;;;;;;;10.33;100.00;99102.63;4185268;28;20086;-72
2023/05/20 03:25:12;;;;;;;13.90;10.30;;;;;;;10.36;100.00;99105.47;4185835;28;20126;-72
2023/05/20 03:27:13;;;;;;;13.73;10.90;;;;;;;10.32;100.00;99098.25;4186191;28;20052;-72
2023/05/20 03:29:13;;;;;;;13.60;10.68;;;;;;;10.31;100.00;99107.72;4181285;28;20060;-72
2023/05/20 03:31:13;;;;;;;17.35;10.55;;;;;;;10.32;100.00;99106.53;4185058;28;20064;-72
2023/05/20 03:33:14;;;;;;;14.15;10.63;;;;;;;10.29;100.00;99104.50;4181224;28;20068;-72
2023/05/20 03:35:15;;;;;;;13.90;10.10;;;;;;;10.29;100.00;99104.50;4185160;28;20056;-72
2023/05/20 03:37:15;;;;;;;17.25;11.02;;;;;;;10.33;100.00;99097.09;4180202;28;20420;-72
2023/05/20 03:39:15;;;;;;;15.48;11.40;;;;;;;10.29;100.00;99101.75;4182778;28;20077;-72
2023/05/20 03:41:16;;;;;;;15.90;12.02;;;;;;;10.31;100.00;99107.72;4188543;28;20592;-72
2023/05/20 03:43:16;;;;;;;12.77;10.85;;;;;;;10.29;100.00;99099.78;4183321;28;20401;-72
2023/05/20 03:45:16;;;;;;;15.30;11.80;;;;;;;10.23;100.00;99098.44;4178661;28;20385;-72
2023/05/20 03:47:17;;;;;;;17.77;10.85;;;;;;;10.24;100.00;99093.72;4186687;28;20352;-72
2023/05/20 03:49:17;;;;;;;16.75;12.02;;;;;;;10.21;100.00;99094.41;4184729;28;20072;-72
2023/05/20 03:51:17;;;;;;;14.88;11.60;;;;;;;10.20;100.00;99098.34;4184076;28;20076;-72
2023/05/20 03:53:19;;;;;;;15.20;10.75;;;;;;;10.21;100.00;99092.44;4183436;28;20128;-72
2023/05/20 03:55:19;;;;;;;15.85;11.50;;;;;;;10.21;100.00;99097.97;4183605;28;20052;-72
2023/05/20 03:57:20;;;;;;;16.65;11.20;;;;;;;10.21;100.00;99094.41;4185858;28;20439;-72
2023/05/20 03:59:21;;;;;;;13.55;10.10;;;;;;;10.20;100.00;99093.63;4181923;28;20057;-72
2023/05/20 04:01:24;;;;;;;15.13;11.30;;;;;;;10.22;100.00;99098.78;4186918;28;20040;-72
2023/05/20 04:03:24;;;;;;;13.88;10.75;;;;;;;10.21;100.00;99086.94;4185121;28;20040;-72
2023/05/20 04:05:25;;;;;;;12.45;10.40;;;;;;;10.21;100.00;99100.75;4183851;28;20040;-72
2023/05/20 04:07:25;;;;;;;15.85;11.05;;;;;;;10.19;100.00;99097.56;4179329;28;20064;-72
2023/05/20 04:09:26;;;;;;;12.63;10.20;;;;;;;10.17;100.00;99093.53;4179985;28;20063;-72
2023/05/20 04:11:26;;;;;;;16.52;11.38;;;;;;;10.15;100.00;99104.94;4181568;28;20372;-72
2023/05/20 04:13:27;;;;;;;15.88;10.90;;;;;;;10.16;100.00;99109.31;4185013;28;20385;-72
2023/05/20 04:15:28;;;;;;;15.52;11.20;;;;;;;10.09;100.00;99109.16;4179063;28;20040;-75
2023/05/20 04:17:29;;;;;;;14.60;10.52;;;;;;;10.15;100.00;99104.94;4187834;28;20040;-72
2023/05/20 04:19:30;;;;;;;15.60;11.48;;;;;;;10.10;100.00;99108.81;4181944;28;20333;-72
2023/05/20 04:21:30;;;;;;;13.25;10.25;;;;;;;10.12;100.00;99119.50;4180166;28;20037;-72
2023/05/20 04:23:31;;;;;;;14.07;10.73;;;;;;;10.09;100.00;99101.69;4184399;28;20048;-72
2023/05/20 04:25:32;;;;;;;12.88;10.73;;;;;;;10.10;100.00;99111.56;4183016;28;20412;-72
2023/05/20 04:27:32;;;;;;;18.45;10.88;;;;;;;10.11;100.00;99113.19;4183460;28;20032;-72
2023/05/20 04:29:33;;;;;;;15.63;10.57;;;;;;;10.09;100.00;99120.19;4185268;28;20076;-72
2023/05/20 04:31:33;;;;;;;14.82;11.13;;;;;;;10.08;100.00;99121.38;4183196;28;20449;-72
2023/05/20 04:33:36;;;;;;;14.55;11.00;;;;;;;10.07;100.00;99117.00;4184453;28;20040;-72
2023/05/20 04:35:40;;;;;;;16.40;10.52;;;;;;;10.05;100.00;99125.66;4181181;28;20086;-72
2023/05/20 04:37:41;;;;;;;14.57;11.02;;;;;;;10.07;100.00;99122.53;4183202;28;20036;-72
2023/05/20 04:39:42;;;;;;;16.15;11.82;;;;;;;10.04;100.00;99114.97;4185349;28;20143;-72
2023/05/20 04:41:43;;;;;;;14.43;10.75;;;;;;;10.05;100.00;99120.13;4183634;28;20122;-72
2023/05/20 04:43:44;;;;;;;14.48;10.50;;;;;;;10.04;100.00;99121.28;4182032;28;20037;-72
2023/05/20 04:45:46;;;;;;;15.18;10.80;;;;;;;10.00;100.00;99112.09;4176921;28;20037;-72
2023/05/20 04:47:48;;;;;;;19.42;11.07;;;;;;;10.02;100.00;99120.06;4185422;28;20041;-72
2023/05/20 04:49:49;;;;;;;13.18;10.98;;;;;;;10.02;100.00;99120.06;4181492;28;20040;-72
2023/05/20 04:51:50;;;;;;;18.15;11.13;;;;;;;10.05;100.00;99124.88;4184607;28;20393;-72
2023/05/20 04:53:51;;;;;;;17.38;11.82;;;;;;;10.08;100.00;99124.94;4185760;28;20477;-72
2023/05/20 04:55:55;;;;;;;14.55;11.32;;;;;;;10.08;100.00;99130.47;4179549;28;20036;-72
2023/05/20 04:57:55;;;;;;;15.88;11.25;;;;;;;10.09;100.00;99117.44;4184721;28;20159;-72
2023/05/20 04:59:57;;;;;;;14.63;11.60;;;;;;;10.06;100.00;99134.75;4179596;28;20150;-72
2023/05/20 05:01:58;;;;;;;15.17;11.80;;;;;;;10.00;100.00;99123.16;4186158;28;20292;-72
2023/05/20 05:03:58;;;;;;;15.00;11.35;;;;;;;9.99;100.00;99132.63;4183933;28;20089;-72
2023/05/20 05:05:58;;;;;;;15.95;11.15;;;;;;;9.97;100.00;99134.16;4180198;28;20041;-72
2023/05/20 05:07:58;;;;;;;14.38;11.00;;;;;;;9.97;100.00;99126.66;4180392;28;20029;-72
2023/05/20 05:09:59;;;;;;;17.98;12.00;;;;;;;9.96;100.00;99130.56;4182030;28;20583;-72
2023/05/20 05:12:00;;;;;;;13.40;10.77;;;;;;;10.02;100.00;99126.38;4184600;28;20127;-72
2023/05/20 05:14:00;;;;;;;17.70;11.45;;;;;;;10.01;100.00;99116.50;4181883;28;20044;-72
2023/05/20 05:16:01;;;;;;;14.15;11.00;;;;;;;9.99;100.00;99121.56;4187147;28;20546;-72
2023/05/20 05:18:02;;;;;;;14.27;11.00;;;;;;;10.01;100.00;99124.78;4183439;28;20067;-72
2023/05/20 05:20:02;;;;;;;15.55;10.73;;;;;;;10.03;100.00;99124.44;4179686;28;20457;-72
2023/05/20 05:22:03;;;;;;;16.52;11.75;;;;;;;10.03;100.00;99124.44;4185933;28;20119;-72
2023/05/20 05:24:03;;;;;;;14.55;11.20;;;;;;;10.06;100.00;99126.47;4177212;28;20381;-72
2023/05/20 05:26:04;;;;;;;16.10;11.25;;;;;;;10.05;100.00;99122.91;4180683;28;20480;-72
2023/05/20 05:28:04;;;;;;;14.55;11.55;;;;;;;10.02;100.00;99123.63;4182763;28;20029;-72
2023/05/20 05:30:06;;;;;;;15.20;11.13;;;;;;;9.99;100.00;99118.00;4179484;28;20115;-72
2023/05/20 05:32:06;;;;;;;14.60;10.43;;;;;;;10.00;100.00;99122.34;4179563;28;20044;-72
2023/05/20 05:34:07;;;;;;;14.30;10.95;;;;;;;9.96;100.00;99113.19;4176701;28;20013;-72
2023/05/20 05:36:07;;;;;;;14.00;11.48;;;;;;;9.96;100.00;99118.72;4178238;28;20497;-72
2023/05/20 05:38:08;;;;;;;15.38;11.18;;;;;;;9.99;100.00;99118.00;4183153;28;20037;-72
2023/05/20 05:40:08;;;;;;;17.65;11.50;;;;;;;10.03;100.00;99118.91;4177790;28;20077;-72
2023/05/20 05:42:09;;;;;;;16.13;12.30;;;;;;;10.05;100.00;99119.34;4186264;28;20375;-72
2023/05/20 05:44:09;;;;;;;16.73;12.02;;;;;;;10.04;100.00;99112.19;4182090;28;20056;-72
2023/05/20 05:46:10;;;;;;;17.88;12.40;;;;;;;10.04;100.00;99113.00;4181618;28;20379;-72
2023/05/20 05:48:10;;;;;;;16.20;12.30;;;;;;;10.02;100.00;99112.56;4178041;28;20121;-72
2023/05/20 05:50:10;;;;;;;18.48;12.85;;;;;;;10.04;100.00;99112.19;4181308;28;20043;-72
2023/05/20 05:52:11;;;;;;;15.13;11.23;;;;;;;10.03;100.00;99107.84;4186378;28;20056;-72
2023/05/20 05:54:12;;;;;;;15.63;11.95;;;;;;;10.05;100.00;99114.59;4182055;28;20421;-72
2023/05/20 05:56:12;;;;;;;18.15;12.40;;;;;;;10.07;100.00;99106.75;4180479;28;20090;-72
2023/05/20 05:58:12;;;;;;;15.60;12.23;;;;;;;10.09;100.00;99106.38;4187078;28;20028;-72
2023/05/20 06:00:13;;;;;;;14.82;11.77;;;;;;;10.09;100.00;99112.75;4182560;28;20036;-72
2023/05/20 06:02:13;;;;;;;17.73;12.85;;;;;;;10.05;100.00;99106.31;4183343;28;20112;-72
2023/05/20 06:04:13;;;;;;;17.38;11.73;;;;;;;10.11;100.00;99104.88;4181540;28;20029;-72
2023/05/20 06:06:14;;;;;;;15.05;12.30;;;;;;;10.13;100.00;99099.78;4186973;28;20501;-72
2023/05/20 06:08:14;;;;;;;15.80;11.93;;;;;;;10.12;100.00;99103.72;4178293;28;20024;-72
2023/05/20 06:10:14;;;;;;;14.52;11.52;;;;;;;10.12;100.00;99103.72;4180398;28;20382;-72
2023/05/20 06:12:15;;;;;;;16.13;12.63;;;;;;;10.14;100.00;99104.16;4182444;28;20486;-72
2023/05/20 06:14:15;;;;;;;20.42;13.30;;;;;;;10.11;100.00;99102.13;4179473;28;20021;-72
2023/05/20 06:16:15;;;;;;;16.70;12.48;;;;;;;10.13;100.00;99110.84;4179702;28;20887;-72
2023/05/20 06:18:16;;;;;;;17.92;13.20;;;;;;;10.17;100.00;99107.34;4183804;28;20043;-72
2023/05/20 06:20:16;;;;;;;17.15;12.88;;;;;;;10.17;100.00;99105.38;4184019;28;20040;-72
2023/05/20 06:22:16;;;;;;;21.15;14.52;;;;;;;10.15;100.00;99113.25;4180072;28;20115;-72
2023/05/20 06:24:17;;;;;;;25.15;15.93;;;;;;;10.12;100.00;99106.47;4183416;28;20017;-72
2023/05/20 06:26:17;;;;;;;18.40;14.60;;;;;;;10.11;100.00;99104.88;4177420;28;20033;-72
2023/05/20 06:28:18;;;;;;;16.98;13.18;;;;;;;10.16;100.00;99102.97;4185898;28;20373;-72
2023/05/20 06:30:18;;;;;;;18.88;14.85;;;;;;;10.19;100.00;99111.38;4182088;28;20028;-72
2023/05/20 06:32:18;;;;;;;19.08;13.63;;;;;;;10.18;100.00;99104.25;4183290;28;20028;-72
2023/05/20 06:34:19;;;;;;;21.33;14.13;;;;;;;10.20;100.00;99106.66;4181866;28;20032;-72
2023/05/20 06:36:19;;;;;;;21.45;15.20;;;;;;;10.14;100.00;99100.59;4181503;28;20066;-72
2023/05/20 06:38:20;;;;;;;20.65;14.68;;;;;;;10.18;100.00;99100.66;4181430;28;20021;-72
2023/05/20 06:40:20;;;;;;;20.92;14.77;;;;;;;10.22;100.00;99102.38;4176153;28;20060;-72
2023/05/20 06:42:20;;;;;;;21.92;15.63;;;;;;;10.20;100.00;99098.34;4184770;28;20065;-72
2023/05/20 06:44:21;;;;;;;22.23;15.32;;;;;;;10.20;100.00;99095.59;4181961;28;20088;-72
2023/05/20 06:46:21;;;;;;;26.65;15.68;;;;;;;10.21;100.00;99097.97;4181377;28;20119;-72
2023/05/20 06:48:21;;;;;;;22.05;15.80;;;;;;;10.20;100.00;99092.81;4152959;27;20068;-72
2023/05/20 06:50:22;;;;;;;20.63;15.02;;;;;;;10.25;100.00;99098.88;4156660;28;20048;-72
2023/05/20 06:52:23;;;;;;;23.83;16.02;;;;;;;10.27;100.00;99098.56;4178000;28;20048;-72
2023/05/20 06:54:23;;;;;;;21.40;15.23;;;;;;;10.30;100.00;99095.06;4182659;28;20033;-72
2023/05/20 06:56:23;;;;;;;19.35;14.32;;;;;;;10.32;100.00;99095.47;4179003;28;20055;-72
2023/05/20 06:58:24;;;;;;;23.10;15.35;;;;;;;10.32;100.00;99099.06;4180889;28;20024;-72
2023/05/20 07:00:24;;;;;;;22.85;16.42;;;;;;;10.33;100.00;99091.56;4180565;28;20041;-72
2023/05/20 07:02:25;;;;;;;22.25;15.43;;;;;;;10.36;100.00;99090.84;4181228;28;20052;-72
2023/05/20 07:04:25;;;;;;;20.60;14.95;;;;;;;10.34;100.00;99095.91;4178026;28;20045;-72
2023/05/20 07:06:25;;;;;;;20.25;15.25;;;;;;;10.33;100.00;99095.13;4184182;28;20036;-72
2023/05/20 07:08:26;;;;;;;24.23;15.38;;;;;;;10.35;100.00;99080.94;4180815;28;20086;-72
2023/05/20 07:10:26;;;;;;;24.33;15.07;;;;;;;10.39;100.00;99082.63;4183772;28;20465;-72
2023/05/20 07:12:26;;;;;;;22.00;15.63;;;;;;;10.37;100.00;99071.13;4176248;28;20051;-72
2023/05/20 07:14:27;;;;;;;20.48;15.43;;;;;;;10.41;100.00;99071.19;4179807;28;20072;-72
2023/05/20 07:16:28;;;;;;;23.08;16.05;;;;;;;10.44;100.00;99077.97;4182612;28;20151;-72
2023/05/20 07:18:28;;;;;;;22.27;16.33;;;;;;;10.46;100.00;99064.56;4182778;28;20437;-72
2023/05/20 07:20:29;;;;;;;25.95;15.60;;;;;;;10.48;100.00;99071.34;4177035;28;20083;-72
2023/05/20 07:22:31;;;;;;;22.23;16.13;;;;;;;10.52;100.00;99063.13;4179261;28;20058;-72
2023/05/20 07:24:31;;;;;;;22.25;15.95;;;;;;;10.58;100.00;99058.88;4185210;28;20052;-72
2023/05/20 07:26:35;;;;;;;24.88;16.10;;;;;;;10.53;100.00;99051.69;4179592;28;20055;-72
2023/05/20 07:28:36;;;;;;;22.98;16.35;;;;;;;10.53;100.00;99059.19;4180724;28;20041;-72
2023/05/20 07:30:37;;;;;;;24.95;17.70;;;;;;;10.54;100.00;99061.59;4187247;28;20045;-72
2023/05/20 07:32:37;;;;;;;21.15;15.70;;;;;;;10.57;100.00;99047.00;4182541;28;20044;-72
2023/05/20 07:34:37;;;;;;;24.17;16.75;;;;;;;10.61;100.00;99049.88;4180541;28;20033;-72
2023/05/20 07:36:37;;;;;;;23.05;15.60;;;;;;;10.65;100.00;99061.81;4181160;28;20059;-72
2023/05/20 07:38:38;;;;;;;23.88;17.15;;;;;;;10.64;100.00;99062.97;4185794;28;20153;-72
2023/05/20 07:40:40;;;;;;;23.17;15.85;;;;;;;10.70;100.00;99061.53;4185000;28;20105;-72
2023/05/20 07:42:40;;;;;;;23.10;17.05;;;;;;;10.71;100.00;99065.09;4183110;28;20049;-72
2023/05/20 07:44:40;;;;;;;23.60;17.45;;;;;;;10.69;100.00;99059.91;4184261;28;20171;-72
2023/05/20 07:46:41;;;;;;;25.83;17.08;;;;;;;10.74;100.00;99061.56;4182247;28;20076;-72
2023/05/20 07:48:41;;;;;;;24.50;16.80;;;;;;;10.74;100.00;99051.31;4187021;28;20117;-72
2023/05/20 07:50:41;;;;;;;21.08;16.60;;;;;;;10.81;100.00;99056.19;4182806;28;20154;-72
2023/05/20 07:52:42;;;;;;;23.77;17.42;;;;;;;10.78;100.00;99052.19;4185917;28;20079;-72
2023/05/20 07:54:42;;;;;;;24.70;16.65;;;;;;;10.89;100.00;99044.09;4186019;28;20410;-72
2023/05/20 07:56:42;;;;;;;23.30;16.63;;;;;;;10.92;100.00;99052.47;4184150;28;20102;-72
2023/05/20 07:58:51;;;;;;;22.15;17.27;;;;;;;10.93;100.00;99054.09;4185959;28;20143;-72
2023/05/20 08:00:51;;;;;;;24.13;16.13;;;;;;;10.96;100.00;99056.09;4182286;28;20116;-72
2023/05/20 08:02:52;;;;;;;22.08;16.63;;;;;;;10.98;100.00;99055.72;4183761;28;20118;-72
2023/05/20 08:04:52;;;;;;;29.77;17.38;;;;;;;11.00;100.00;99052.59;4181784;28;20043;-72
2023/05/20 08:06:53;;;;;;;23.30;16.55;;;;;;;11.01;100.00;99049.47;4183889;28;20396;-72
2023/05/20 08:08:53;;;;;;;24.23;16.98;;;;;;;11.04;100.00;99045.16;4183912;28;20055;-72
2023/05/20 08:10:53;;;;;;;22.13;17.08;;;;;;;11.10;100.00;99047.28;4181090;28;20605;-72
2023/05/20 08:12:54;;;;;;;25.85;17.08;;;;;;;11.09;100.00;99045.69;4181787;28;20041;-72
2023/05/20 08:14:55;;;;;;;22.75;16.77;;;;;;;11.09;100.00;99050.38;4180293;28;20078;-72
2023/05/20 08:16:55;;;;;;;26.60;17.58;;;;;;;11.21;100.00;99055.75;4184595;28;20049;-72
2023/05/20 08:18:55;;;;;;;20.58;16.23;;;;;;;11.26;100.00;99049.94;4181964;28;20059;-72
2023/05/20 08:20:56;;;;;;;22.52;16.35;;;;;;;11.29;100.00;99046.41;4185480;28;20037;-72
2023/05/20 08:22:56;;;;;;;27.23;16.85;;;;;;;11.34;100.00;99051.66;4183891;28;20036;-72
2023/05/20 08:24:56;;;;;;;25.27;17.05;;;;;;;11.36;100.00;99051.28;4181541;28;20131;-72
2023/05/20 08:26:57;;;;;;;24.50;16.52;;;;;;;11.38;100.00;99046.16;4181751;28;20053;-72
2023/05/20 08:28:57;;;;;;;24.02;16.67;;;;;;;11.39;100.00;99040.25;4185179;28;20040;-72
2023/05/20 08:31:00;;;;;;;22.58;16.98;;;;;;;11.41;100.00;99049.00;4186709;28;20074;-72
2023/05/20 08:33:01;;;;;;;24.30;16.60;;;;;;;11.40;100.00;99032.75;4183058;28;20045;-72
2023/05/20 08:35:02;;;;;;;22.13;16.63;;;;;;;11.44;100.00;99033.63;4183206;28;20060;-72
2023/05/20 08:37:03;;;;;;;23.25;15.93;;;;;;;11.48;100.00;99031.69;4180148;28;20059;-72
2023/05/20 08:39:03;;;;;;;23.83;16.13;;;;;;;11.53;100.00;99015.56;4180658;28;20449;-72
2023/05/20 08:41:03;;;;;;;23.13;15.90;;;;;;;11.56;100.00;99024.28;4181066;28;20052;-72
2023/05/20 08:43:04;;;;;;;24.48;16.75;;;;;;;11.50;100.00;99013.53;4178158;28;20067;-72
2023/05/20 08:45:04;;;;;;;23.73;15.20;;;;;;;11.51;100.00;99026.22;4181801;28;20578;-72
2023/05/20 08:47:07;;;;;;;22.92;15.43;;;;;;;11.51;100.00;99033.75;4184158;28;20037;-72
2023/05/20 08:49:07;;;;;;;20.45;15.32;;;;;;;11.54;100.00;99039.31;4186627;28;20098;-72
2023/05/20 08:51:10;;;;;;;21.80;14.73;;;;;;;11.57;100.00;99018.38;4185775;28;20040;-72
2023/05/20 08:53:10;;;;;;;21.27;15.75;;;;;;;11.62;100.00;99020.84;4183679;28;20071;-72
2023/05/20 08:55:15;;;;;;;23.23;15.52;;;;;;;11.67;100.00;99023.31;4183430;28;20208;-72
2023/05/20 08:57:15;;;;;;;22.33;15.60;;;;;;;11.76;100.00;99034.13;4179207;28;20476;-72
2023/05/20 08:59:16;;;;;;;25.55;15.52;;;;;;;11.77;100.00;99024.66;4180835;28;20044;-72
2023/05/20 09:01:17;;;;;;;22.27;15.65;;;;;;;11.81;100.00;99023.53;4182498;28;20045;-72
2023/05/20 09:03:19;;;;;;;21.30;14.52;;;;;;;11.84;100.00;99019.25;4180046;28;20063;-72
2023/05/20 09:05:20;;;;;;;21.80;15.70;;;;;;;11.90;100.00;99019.69;4181533;28;20067;-72
2023/05/20 09:07:27;;;;;;;21.45;15.52;;;;;;;11.94;100.00;99015.81;4179518;28;20496;-72
2023/05/20 09:09:29;;;;;;;22.77;14.82;;;;;;;12.01;100.00;99021.47;4184082;28;20052;-72
2023/05/20 09:11:29;;;;;;;21.33;15.02;;;;;;;12.03;100.00;99021.09;4180702;28;20480;-72